Time;durP1;ratioP1;P1;durP2;ratioP2;P2;SDS_P1;SDS_P2;PMS_P1;PMS_P2;Temp;Humidity;BMP_temperature;BMP_pressure;BME280_temperature;BME280_humidity;BME280_pressure;Samples;Min_cycle;Max_cycle;Signal;HPM_P1;HPM_P2
2023/01/30 00:01:02;;;;;;;8.60;4.35;;;;;;;8.22;100.00;101167.19;2080580;28;20037;-77
2023/01/30 00:02:24;;;;;;;9.18;4.75;;;;;;;8.21;100.00;101170.66;2077778;28;20363;-76
2023/01/30 00:03:47;;;;;;;6.57;3.30;;;;;;;8.19;100.00;101164.47;2080988;28;20075;-76
2023/01/30 00:05:10;;;;;;;13.05;5.22;;;;;;;8.17;100.00;101165.25;2080067;28;20064;-76
2023/01/30 00:06:32;;;;;;;14.07;5.85;;;;;;;8.16;100.00;101164.38;2084690;28;20045;-75
2023/01/30 00:07:55;;;;;;;6.63;2.65;;;;;;;8.16;100.00;101155.56;2085781;28;20057;-75
2023/01/30 00:09:17;;;;;;;3.65;2.00;;;;;;;8.15;100.00;101165.19;2085386;28;20428;-76
2023/01/30 00:10:40;;;;;;;5.15;2.92;;;;;;;8.16;100.00;101158.22;2076574;28;20041;-76
2023/01/30 00:12:02;;;;;;;13.20;7.40;;;;;;;8.16;100.00;101159.09;2091256;28;20053;-76
2023/01/30 00:13:23;;;;;;;15.55;8.85;;;;;;;8.17;100.00;101158.25;2085849;28;20053;-75
2023/01/30 00:14:45;;;;;;;17.17;9.43;;;;;;;8.17;100.00;101154.75;2085294;28;20041;-75
2023/01/30 00:16:08;;;;;;;47.67;26.10;;;;;;;8.18;100.00;101151.28;2077118;28;20053;-75
2023/01/30 00:17:30;;;;;;;57.92;35.08;;;;;;;8.19;100.00;101159.22;2082363;28;20037;-75
2023/01/30 00:18:53;;;;;;;47.35;29.30;;;;;;;8.19;100.00;101153.06;2084614;28;20084;-75
2023/01/30 00:20:15;;;;;;;39.72;27.85;;;;;;;8.19;100.00;101159.22;2093833;28;20044;-75
2023/01/30 00:21:37;;;;;;;48.88;33.38;;;;;;;8.20;100.00;101145.22;2087319;28;20045;-75
2023/01/30 00:23:01;;;;;;;32.33;24.02;;;;;;;8.20;100.00;101144.34;2076472;28;20058;-75
2023/01/30 00:24:23;;;;;;;31.17;22.38;;;;;;;8.18;100.00;101140.75;2066889;28;20399;-76
2023/01/30 00:25:46;;;;;;;27.70;19.10;;;;;;;8.17;100.00;101136.34;2090492;28;20582;-77
2023/01/30 00:27:08;;;;;;;9.13;5.22;;;;;;;8.15;100.00;101135.38;2087118;28;20112;-76
2023/01/30 00:28:32;;;;;;;6.50;3.35;;;;;;;8.09;100.00;101132.56;2075948;28;20069;-76
2023/01/30 00:29:53;;;;;;;8.52;4.18;;;;;;;8.06;100.00;101124.59;2082656;28;20448;-75
2023/01/30 00:31:15;;;;;;;6.78;3.72;;;;;;;8.02;100.00;101119.22;2079683;28;20096;-75
2023/01/30 00:32:36;;;;;;;5.32;2.63;;;;;;;8.00;100.00;101120.94;2079348;28;20042;-76
2023/01/30 00:33:59;;;;;;;10.15;7.70;;;;;;;7.99;100.00;101132.28;2093410;28;20075;-75
2023/01/30 00:35:20;;;;;;;14.05;11.57;;;;;;;8.01;100.00;101122.69;2104461;28;20129;-75
2023/01/30 00:36:43;;;;;;;8.75;5.32;;;;;;;8.04;100.00;101121.91;2090472;28;20067;-75
2023/01/30 00:38:04;;;;;;;9.15;7.15;;;;;;;8.07;100.00;101129.03;2085368;28;20052;-75
2023/01/30 00:39:26;;;;;;;16.08;10.02;;;;;;;8.09;100.00;101124.69;2079551;28;20449;-76
2023/01/30 00:40:50;;;;;;;16.35;9.73;;;;;;;8.11;100.00;101128.25;2090593;28;20048;-76
2023/01/30 00:47:28;;;;;;;27.58;18.98;;;;;;;8.11;100.00;101128.25;2062690;28;20568;-77
2023/01/30 00:48:49;;;;;;;26.92;16.70;;;;;;;8.09;100.00;101125.56;2050677;28;20069;-76
2023/01/30 00:50:12;;;;;;;20.83;14.07;;;;;;;8.06;100.00;101120.25;2065715;28;20054;-76
2023/01/30 00:51:36;;;;;;;36.40;22.80;;;;;;;8.06;100.00;101129.84;2080275;28;20061;-75
2023/01/30 00:52:58;;;;;;;23.60;16.33;;;;;;;8.04;100.00;101121.91;2077272;28;20053;-77
2023/01/30 00:54:20;;;;;;;25.45;17.65;;;;;;;8.05;100.00;101126.34;2077015;28;20049;-77
2023/01/30 00:55:43;;;;;;;13.85;9.23;;;;;;;8.07;100.00;101121.13;2082593;28;20080;-76
2023/01/30 00:57:07;;;;;;;7.78;4.40;;;;;;;8.08;100.00;101125.50;2077524;28;20136;-76
2023/01/30 00:58:28;;;;;;;7.50;4.50;;;;;;;8.07;100.00;101121.13;2078663;28;20057;-78
2023/01/30 00:59:51;;;;;;;5.35;2.70;;;;;;;8.02;100.00;101121.84;2082418;28;20049;-77
2023/01/30 01:01:12;;;;;;;5.57;2.50;;;;;;;8.00;100.00;101114.78;2082284;28;20107;-76
2023/01/30 01:02:34;;;;;;;4.40;2.10;;;;;;;8.00;100.00;101120.06;2078594;28;20563;-78
2023/01/30 01:03:57;;;;;;;2.92;1.40;;;;;;;8.02;100.00;101128.84;2084140;28;20044;-78
2023/01/30 01:05:18;;;;;;;2.38;1.48;;;;;;;8.00;100.00;101123.56;2076510;28;20037;-77
2023/01/30 01:06:40;;;;;;;3.85;1.60;;;;;;;8.00;100.00;101114.78;2067720;28;20048;-77
2023/01/30 01:08:02;;;;;;;3.30;1.50;;;;;;;7.98;100.00;101122.63;2067999;28;20124;-77
2023/01/30 01:09:24;;;;;;;2.45;1.30;;;;;;;7.98;100.00;101126.97;2075636;28;20085;-77
2023/01/30 01:10:48;;;;;;;4.50;1.38;;;;;;;7.99;100.00;101124.41;2086989;28;20037;-77
2023/01/30 01:12:12;;;;;;;4.78;1.73;;;;;;;8.00;100.00;101117.41;2089244;28;20505;-78
2023/01/30 01:13:33;;;;;;;6.05;3.50;;;;;;;7.99;100.00;101113.91;2080800;28;20533;-77
2023/01/30 01:14:55;;;;;;;17.42;11.68;;;;;;;7.99;100.00;101115.63;2086703;28;20045;-77
2023/01/30 01:16:18;;;;;;;29.90;19.90;;;;;;;7.99;100.00;101113.91;2073172;28;20054;-77
2023/01/30 01:17:40;;;;;;;23.48;15.27;;;;;;;7.98;100.00;101101.59;2083930;28;20045;-77
2023/01/30 01:19:01;;;;;;;;;;;;;;;7.94;100.00;101109.34;2090809;28;20536;-77
2023/01/30 01:20:24;;;;;;;35.10;26.90;;;;;;;7.93;100.00;101111.06;2086405;28;20686;-77
2023/01/30 01:21:46;;;;;;;35.38;25.85;;;;;;;7.92;100.00;101109.28;2085383;28;20045;-78
2023/01/30 01:23:09;;;;;;;29.13;21.77;;;;;;;7.93;100.00;101107.56;2077201;28;20104;-76
2023/01/30 01:24:31;;;;;;;30.75;23.85;;;;;;;7.92;100.00;101106.66;2084185;28;20040;-76
2023/01/30 01:25:53;;;;;;;26.90;21.15;;;;;;;7.92;100.00;101116.28;2094244;28;20488;-76
2023/01/30 01:27:18;;;;;;;25.88;19.35;;;;;;;7.93;100.00;101118.06;2077030;28;20057;-76
2023/01/30 01:28:40;;;;;;;29.48;21.95;;;;;;;7.93;100.00;101126.84;2095486;28;20070;-76
2023/01/30 01:30:07;;;;;;;25.20;20.00;;;;;;;7.93;100.00;101124.22;2083019;28;20037;-76
2023/01/30 01:31:28;;;;;;;26.02;19.58;;;;;;;7.93;100.00;101118.97;2092629;28;20063;-76
2023/01/30 01:32:51;;;;;;;22.10;14.38;;;;;;;7.95;100.00;101124.25;2080878;28;20041;-76
2023/01/30 01:34:13;;;;;;;19.00;13.50;;;;;;;7.97;100.00;101120.84;2078296;28;20062;-76
2023/01/30 01:35:41;;;;;;;16.63;10.93;;;;;;;7.99;100.00;101119.16;2084756;28;20049;-77
2023/01/30 01:37:03;;;;;;;14.85;9.52;;;;;;;8.04;100.00;101119.28;2070603;28;20395;-76
2023/01/30 01:38:25;;;;;;;12.80;8.35;;;;;;;8.06;100.00;101122.88;2075694;28;20526;-77
2023/01/30 01:41:27;;;;;;;18.10;10.98;;;;;;;8.07;100.00;101121.13;2080815;28;20037;-77
2023/01/30 01:42:50;;;;;;;12.10;8.10;;;;;;;8.05;100.00;101117.56;2070119;28;20503;-75
2023/01/30 01:44:15;;;;;;;12.32;8.57;;;;;;;8.04;100.00;101113.13;2078104;28;20091;-76
2023/01/30 01:45:37;;;;;;;7.85;5.13;;;;;;;8.01;100.00;101111.28;2081779;28;20542;-76
2023/01/30 01:47:00;;;;;;;5.50;2.95;;;;;;;8.01;100.00;101112.19;2078007;28;20041;-77
2023/01/30 01:48:27;;;;;;;4.88;2.45;;;;;;;8.02;100.00;101118.34;2085943;28;20095;-76
2023/01/30 01:49:49;;;;;;;4.90;2.88;;;;;;;8.01;100.00;101122.69;2078778;28;20053;-77
2023/01/30 01:51:16;;;;;;;5.78;2.50;;;;;;;8.05;100.00;101118.44;2070007;28;20050;-77
2023/01/30 01:52:37;;;;;;;2.75;1.67;;;;;;;8.04;100.00;101114.03;2081431;28;20421;-77
2023/01/30 01:54:03;;;;;;;2.65;1.35;;;;;;;8.03;100.00;101114.88;2086375;28;20059;-76
2023/01/30 01:55:26;;;;;;;3.42;2.20;;;;;;;8.02;100.00;101118.34;2086955;28;20041;-76
2023/01/30 01:56:50;;;;;;;6.57;2.95;;;;;;;8.02;100.00;101113.97;2078141;28;20049;-76
2023/01/30 01:58:19;;;;;;;5.47;2.30;;;;;;;8.04;100.00;101116.66;2086782;28;20044;-76
2023/01/30 01:59:48;;;;;;;3.47;1.90;;;;;;;8.09;100.00;101112.44;2079956;28;20128;-77
2023/01/30 02:01:11;;;;;;;3.85;2.00;;;;;;;8.12;100.00;101115.16;2081243;28;20060;-77
2023/01/30 02:02:33;;;;;;;7.28;3.75;;;;;;;8.15;100.00;101111.72;2067562;28;20053;-77
2023/01/30 02:03:57;;;;;;;;;;;;;;;8.13;100.00;101110.81;2083177;28;20067;-77
2023/01/30 02:05:19;;;;;;;3.08;2.13;;;;;;;8.15;100.00;101106.47;2081656;28;20221;-77
2023/01/30 02:06:43;;;;;;;3.00;1.90;;;;;;;8.16;100.00;101116.13;2083049;28;20100;-77
2023/01/30 02:08:08;;;;;;;3.10;1.55;;;;;;;8.13;100.00;101103.81;2085871;28;20525;-76
2023/01/30 02:09:31;;;;;;;1.58;1.15;;;;;;;8.10;100.00;101108.06;2085857;28;20588;-76
2023/01/30 02:11:00;;;;;;;3.20;1.30;;;;;;;8.04;100.00;101100.00;2085989;28;20135;-77
2023/01/30 02:12:22;;;;;;;3.75;1.55;;;;;;;7.96;100.00;101097.13;2079002;28;20068;-76
2023/01/30 02:13:47;;;;;;;1.80;1.35;;;;;;;7.93;100.00;101102.28;2084083;28;20514;-77
2023/01/30 02:15:10;;;;;;;2.55;1.48;;;;;;;7.89;100.00;101101.28;2093406;28;20097;-77
2023/01/30 02:16:36;;;;;;;2.58;1.50;;;;;;;7.86;100.00;101098.59;2080824;28;20099;-77
2023/01/30 02:17:58;;;;;;;1.85;1.40;;;;;;;7.84;100.00;101095.00;2087877;28;20697;-77
2023/01/30 02:19:25;;;;;;;6.63;1.60;;;;;;;7.85;100.00;101099.41;2080690;28;20061;-76
2023/01/30 02:21:05;;;;;;;8.57;4.43;;;;;;;7.84;100.00;101097.63;2095335;28;20044;-76
2023/01/30 02:22:50;;;;;;;12.38;7.00;;;;;;;7.83;100.00;101094.94;2080605;28;20556;-77
2023/01/30 02:24:40;;;;;;;19.52;13.38;;;;;;;7.83;100.00;101100.19;2079417;28;20037;-76
2023/01/30 02:26:40;;;;;;;18.45;13.98;;;;;;;7.83;100.00;101093.22;2087785;28;20104;-77
2023/01/30 02:28:30;;;;;;;13.98;10.35;;;;;;;7.85;100.00;101098.53;2087066;28;20511;-77
2023/01/30 02:30:26;;;;;;;14.30;10.20;;;;;;;7.88;100.00;101098.59;2088013;28;20090;-77
2023/01/30 02:31:57;;;;;;;19.45;14.63;;;;;;;7.88;100.00;101096.88;2077521;28;20137;-77
2023/01/30 02:33:28;;;;;;;21.48;17.20;;;;;;;7.92;100.00;101092.63;2069572;28;20405;-76
2023/01/30 02:34:58;;;;;;;23.27;18.30;;;;;;;7.92;100.00;101092.63;2070582;28;20038;-76
2023/01/30 02:36:28;;;;;;;10.63;7.57;;;;;;;7.96;100.00;101097.13;2070570;28;20054;-76
2023/01/30 02:38:04;;;;;;;9.02;6.10;;;;;;;7.95;100.00;101097.97;2085744;28;20049;-76
2023/01/30 02:39:38;;;;;;;8.88;5.95;;;;;;;7.97;100.00;101096.28;2080347;28;20171;-76
2023/01/30 02:41:14;;;;;;;9.77;5.32;;;;;;;8.02;100.00;101092.94;2078996;28;20061;-76
2023/01/30 02:42:42;;;;;;;5.10;2.40;;;;;;;8.05;100.00;101096.53;2071294;28;20445;-77
2023/01/30 02:44:09;;;;;;;4.00;2.22;;;;;;;8.06;100.00;101093.06;2076710;28;20402;-76
2023/01/30 02:45:35;;;;;;;4.53;2.17;;;;;;;8.08;100.00;101100.13;2077564;28;20144;-76
2023/01/30 02:47:04;;;;;;;2.67;1.60;;;;;;;8.11;100.00;101105.50;2070253;28;20078;-76
2023/01/30 02:48:32;;;;;;;3.35;1.77;;;;;;;8.13;100.00;101106.44;2082519;28;20327;-76
2023/01/30 02:50:00;;;;;;;5.28;2.53;;;;;;;8.18;100.00;101112.72;2085687;28;20044;-75
2023/01/30 02:51:27;;;;;;;12.85;7.53;;;;;;;8.20;100.00;101113.69;2086628;28;20147;-77
2023/01/30 02:52:49;;;;;;;17.17;10.35;;;;;;;8.19;100.00;101116.25;2077741;28;20452;-75
2023/01/30 02:54:13;;;;;;;15.75;11.68;;;;;;;8.22;100.00;101111.97;2091467;28;20126;-76
2023/01/30 02:55:35;;;;;;;19.33;15.48;;;;;;;8.24;100.00;101114.66;2080141;28;20184;-77
2023/01/30 02:56:58;;;;;;;15.02;10.20;;;;;;;8.31;100.00;101112.28;2073897;28;20072;-77
2023/01/30 02:58:26;;;;;;;10.82;6.22;;;;;;;8.40;100.00;101119.56;2078321;28;20057;-83
2023/01/30 02:59:53;;;;;;;11.75;7.63;;;;;;;8.39;100.00;101123.03;2072201;28;20053;-86
2023/01/30 03:01:38;;;;;;;11.00;6.55;;;;;;;8.38;100.00;101113.38;2078152;28;20057;-89
2023/01/30 03:03:19;;;;;;;9.30;5.25;;;;;;;8.37;100.00;101116.84;2093974;28;20052;-88
2023/01/30 03:04:59;;;;;;;8.40;3.97;;;;;;;8.39;100.00;101121.31;2080520;28;20053;-85
2023/01/30 03:06:50;;;;;;;7.45;3.35;;;;;;;8.39;100.00;101130.94;2072689;28;20050;-85
2023/01/30 03:08:24;;;;;;;6.63;3.72;;;;;;;8.38;100.00;101126.50;2083337;28;20114;-86
2023/01/30 03:09:56;;;;;;;9.43;3.88;;;;;;;8.42;100.00;101130.13;2079024;28;20049;-84
2023/01/30 03:11:23;;;;;;;11.18;6.10;;;;;;;8.49;100.00;101130.34;2077473;28;20080;-86
2023/01/30 03:13:16;;;;;;;11.02;5.82;;;;;;;8.58;100.00;101133.25;2084958;28;20052;-86
2023/01/30 03:14:42;;;;;;;;;;;;;;;8.63;100.00;101120.22;2088469;28;20517;-87
2023/01/30 03:16:10;;;;;;;13.43;6.05;;;;;;;8.72;100.00;101131.94;2085442;28;19920;-85
2023/01/30 03:17:34;;;;;;;12.13;5.15;;;;;;;8.79;100.00;101117.22;2086982;28;20146;-86
2023/01/30 03:18:59;;;;;;;8.57;4.07;;;;;;;8.85;100.00;101119.13;2072952;28;20414;-87
2023/01/30 03:20:21;;;;;;;10.10;3.95;;;;;;;8.88;100.00;101113.91;2083045;28;20037;-88
2023/01/30 03:21:43;;;;;;;8.52;3.05;;;;;;;8.90;100.00;101115.75;2078068;28;20069;-87
2023/01/30 03:23:06;;;;;;;7.05;2.53;;;;;;;8.90;100.00;101113.13;2085860;28;20032;-86
2023/01/30 03:24:30;;;;;;;9.63;4.22;;;;;;;8.88;100.00;101113.91;2080701;28;20080;-85
2023/01/30 03:25:52;;;;;;;5.93;2.90;;;;;;;8.83;100.00;101108.53;2083222;28;20053;-85
2023/01/30 03:27:14;;;;;;;10.82;5.18;;;;;;;8.78;100.00;101105.78;2083260;28;20076;-85
2023/01/30 03:28:40;;;;;;;13.82;6.65;;;;;;;8.78;100.00;101099.63;2072686;28;20061;-84
2023/01/30 03:30:01;;;;;;;16.35;7.53;;;;;;;8.82;100.00;101108.47;2075714;28;20053;-84
2023/01/30 03:31:23;;;;;;;15.32;7.57;;;;;;;8.87;100.00;101117.41;2069906;28;20525;-84
2023/01/30 03:32:45;;;;;;;17.60;8.73;;;;;;;8.92;100.00;101116.69;2082153;28;20041;-87
2023/01/30 03:34:10;;;;;;;19.33;13.55;;;;;;;8.98;100.00;101115.97;2094816;28;20071;-88
2023/01/30 03:35:34;;;;;;;32.28;22.02;;;;;;;8.98;100.00;101116.88;2070212;28;20385;-90
2023/01/30 03:36:59;;;;;;;16.38;8.80;;;;;;;8.99;100.00;101109.88;2067832;28;20045;-94
2023/01/30 03:38:22;;;;;;;33.13;22.05;;;;;;;8.98;100.00;101114.25;2085374;28;20045;-89
2023/01/30 03:39:45;;;;;;;27.73;17.15;;;;;;;8.99;100.00;101123.03;2080460;28;20037;-90
2023/01/30 03:41:11;;;;;;;27.42;16.55;;;;;;;9.00;100.00;101130.94;2078563;28;20058;-93
2023/01/30 03:42:33;;;;;;;24.20;16.08;;;;;;;9.03;100.00;101144.22;2076378;28;20065;-92
2023/01/30 03:43:55;;;;;;;27.88;13.70;;;;;;;9.04;100.00;101150.38;2083232;28;20049;-78
2023/01/30 03:45:18;;;;;;;29.42;10.15;;;;;;;8.98;100.00;101155.47;2077617;28;20065;-79
2023/01/30 03:46:41;;;;;;;16.98;7.00;;;;;;;8.95;100.00;101140.47;2078053;28;20041;-80
2023/01/30 03:48:04;;;;;;;14.90;6.53;;;;;;;8.95;100.00;101150.09;2077445;28;20524;-79
2023/01/30 03:49:29;;;;;;;14.95;7.45;;;;;;;8.96;100.00;101147.50;2069793;28;20054;-82
2023/01/30 03:50:52;;;;;;;15.27;7.15;;;;;;;9.00;100.00;101136.22;2074054;28;20057;-83
2023/01/30 03:52:15;;;;;;;18.73;8.10;;;;;;;9.05;100.00;101142.53;2082614;28;20069;-84
2023/01/30 03:53:36;;;;;;;14.00;7.32;;;;;;;9.09;100.00;101138.22;2077796;28;20072;-83
2023/01/30 03:55:00;;;;;;;12.95;5.65;;;;;;;9.12;100.00;101144.44;2083697;28;20060;-81
2023/01/30 03:56:22;;;;;;;12.13;5.35;;;;;;;9.15;100.00;101143.66;2081857;28;20115;-83
2023/01/30 03:57:45;;;;;;;11.02;4.60;;;;;;;9.18;100.00;101141.13;2085533;28;20052;-83
2023/01/30 03:59:07;;;;;;;12.27;4.97;;;;;;;9.19;100.00;101141.13;2069861;28;20042;-80
2023/01/30 04:00:37;;;;;;;10.45;4.63;;;;;;;9.21;100.00;101151.72;2073918;28;20048;-82
2023/01/30 04:02:00;;;;;;;9.40;4.05;;;;;;;9.24;100.00;101156.19;2075432;28;20140;-82
2023/01/30 04:03:22;;;;;;;10.38;4.40;;;;;;;9.27;100.00;101148.34;2083424;28;20033;-82
2023/01/30 04:04:47;;;;;;;8.00;3.80;;;;;;;9.28;100.00;101152.78;2070663;28;20093;-82
2023/01/30 04:06:08;;;;;;;7.90;3.95;;;;;;;9.29;100.00;101151.94;2072148;28;20049;-81
2023/01/30 04:07:31;;;;;;;12.07;4.80;;;;;;;9.30;100.00;101151.09;2069187;28;20100;-81
2023/01/30 04:08:53;;;;;;;7.65;3.40;;;;;;;9.30;100.00;101158.97;2074841;28;20041;-79
2023/01/30 04:10:28;;;;;;;7.50;3.60;;;;;;;9.28;100.00;101158.94;2078600;28;20050;-79
2023/01/30 04:11:50;;;;;;;9.93;4.32;;;;;;;9.30;100.00;101170.41;2072059;28;21463;-79
2023/01/30 04:13:13;;;;;;;8.85;4.30;;;;;;;9.30;100.00;101169.53;2083400;28;20452;-79
2023/01/30 04:14:35;;;;;;;7.88;3.38;;;;;;;9.29;100.00;101168.63;2078331;28;20099;-79
2023/01/30 04:16:18;;;;;;;8.85;3.70;;;;;;;9.28;100.00;101166.84;2094896;28;20052;-81
2023/01/30 04:17:59;;;;;;;7.80;3.33;;;;;;;9.26;100.00;101167.63;2088435;28;20084;-81
2023/01/30 04:19:43;;;;;;;8.68;3.50;;;;;;;9.25;100.00;101171.16;2078112;28;20053;-81
2023/01/30 04:21:06;;;;;;;9.10;3.53;;;;;;;9.27;100.00;101175.59;2079905;28;20580;-81
2023/01/30 04:22:33;;;;;;;7.55;3.00;;;;;;;9.24;100.00;101167.63;2080543;28;20045;-81
2023/01/30 04:23:55;;;;;;;5.60;2.75;;;;;;;9.24;100.00;101172.88;2089197;28;20102;-82
2023/01/30 04:25:16;;;;;;;5.22;2.72;;;;;;;9.24;100.00;101172.88;2087705;28;20048;-81
2023/01/30 04:26:39;;;;;;;6.95;2.72;;;;;;;9.22;100.00;101174.56;2077760;28;20048;-81
2023/01/30 04:28:02;;;;;;;6.78;3.05;;;;;;;9.19;100.00;101174.47;2066982;28;20140;-82
2023/01/30 04:29:30;;;;;;;5.32;2.47;;;;;;;9.15;100.00;101175.25;2080562;28;20037;-83
2023/01/30 04:30:53;;;;;;;7.72;2.92;;;;;;;9.15;100.00;101172.63;2078019;28;20489;-82
2023/01/30 04:32:34;;;;;;;7.65;3.30;;;;;;;9.15;100.00;101170.88;2081158;28;20057;-83
2023/01/30 04:33:56;;;;;;;6.72;3.10;;;;;;;9.17;100.00;101173.56;2078972;28;20037;-81
2023/01/30 04:35:18;;;;;;;5.45;2.88;;;;;;;9.17;100.00;101173.56;2081987;28;20045;-83
2023/01/30 04:36:41;;;;;;;5.53;3.08;;;;;;;9.18;100.00;101175.34;2083653;28;20041;-82
2023/01/30 04:38:04;;;;;;;6.40;2.88;;;;;;;9.18;100.00;101175.34;2081057;28;20445;-85
2023/01/30 04:39:27;;;;;;;6.68;3.05;;;;;;;9.19;100.00;101175.38;2074583;28;20460;-83
2023/01/30 04:40:49;;;;;;;8.90;3.10;;;;;;;9.19;100.00;101175.38;2076210;28;20053;-82
2023/01/30 04:42:12;;;;;;;6.60;3.30;;;;;;;9.21;100.00;101178.06;2092879;28;20044;-83
2023/01/30 04:43:44;;;;;;;7.80;3.42;;;;;;;9.21;100.00;101178.06;2078914;28;20137;-83
2023/01/30 04:45:22;;;;;;;7.20;3.17;;;;;;;9.20;100.00;101176.25;2089429;28;20037;-84
2023/01/30 04:46:45;;;;;;;7.05;3.05;;;;;;;9.19;100.00;101180.63;2079340;28;20140;-85
2023/01/30 04:48:08;;;;;;;5.25;2.95;;;;;;;9.20;100.00;101173.63;2084079;28;20049;-85
2023/01/30 04:49:34;;;;;;;9.18;3.50;;;;;;;9.20;100.00;101178.91;2081574;28;20401;-86
2023/01/30 04:50:58;;;;;;;7.07;3.28;;;;;;;9.20;100.00;101181.53;2087287;28;20037;-86
2023/01/30 04:52:22;;;;;;;8.63;3.60;;;;;;;9.20;100.00;101176.25;2081176;28;20383;-85
2023/01/30 04:53:44;;;;;;;7.60;3.20;;;;;;;9.22;100.00;101173.69;2068611;28;20146;-86
2023/01/30 04:55:07;;;;;;;6.65;3.10;;;;;;;9.21;100.00;101178.06;2078385;28;20552;-86
2023/01/30 04:56:30;;;;;;;9.07;3.08;;;;;;;9.20;100.00;101178.91;2084656;28;21117;-87
2023/01/30 04:57:51;;;;;;;6.35;3.00;;;;;;;9.19;100.00;101175.38;2087503;28;20145;-85
2023/01/30 04:59:13;;;;;;;7.15;3.25;;;;;;;9.21;100.00;101180.69;2094676;28;20040;-87
2023/01/30 05:00:39;;;;;;;6.30;3.40;;;;;;;9.21;100.00;101180.69;2077460;28;20073;-85
2023/01/30 05:02:01;;;;;;;6.88;3.00;;;;;;;9.19;100.00;101182.38;2078253;28;20063;-86
2023/01/30 05:03:23;;;;;;;6.55;2.97;;;;;;;9.18;100.00;101177.97;2082231;28;20045;-86
2023/01/30 05:04:45;;;;;;;7.93;3.33;;;;;;;9.17;100.00;101181.47;2086637;28;20049;-87
2023/01/30 05:06:07;;;;;;;5.80;2.90;;;;;;;9.17;100.00;101184.09;2089553;28;20090;-87
2023/01/30 05:07:30;;;;;;;6.10;3.28;;;;;;;9.17;100.00;101185.00;2079154;28;20593;-87
2023/01/30 05:08:54;;;;;;;7.68;3.13;;;;;;;9.16;100.00;101191.09;2086148;28;20049;-87
2023/01/30 05:10:18;;;;;;;9.35;3.33;;;;;;;9.16;100.00;101187.56;2085674;28;20037;-87
2023/01/30 05:11:39;;;;;;;7.25;3.20;;;;;;;9.17;100.00;101184.09;2087422;28;20083;-86
2023/01/30 05:13:05;;;;;;;7.53;3.53;;;;;;;9.19;100.00;101185.00;2087508;28;20083;-86
2023/01/30 05:14:27;;;;;;;8.02;3.00;;;;;;;9.21;100.00;101185.97;2087034;28;20048;-87
2023/01/30 05:15:50;;;;;;;6.15;3.22;;;;;;;9.22;100.00;101177.22;2095291;28;20037;-87
2023/01/30 05:17:12;;;;;;;6.32;3.10;;;;;;;9.22;100.00;101187.75;2088957;28;20083;-87
2023/01/30 05:18:34;;;;;;;6.55;2.63;;;;;;;9.24;100.00;101179.88;2086092;28;20041;-86
2023/01/30 05:19:57;;;;;;;6.82;2.90;;;;;;;9.25;100.00;101177.31;2086364;28;20102;-87
2023/01/30 05:21:21;;;;;;;5.60;2.83;;;;;;;9.25;100.00;101182.56;2080505;28;20147;-87
2023/01/30 05:22:45;;;;;;;7.03;3.20;;;;;;;9.27;100.00;101179.97;2085698;28;20698;-87
2023/01/30 05:24:06;;;;;;;7.03;2.58;;;;;;;9.30;100.00;101182.69;2081116;28;20477;-87
2023/01/30 05:25:29;;;;;;;8.20;3.22;;;;;;;9.30;100.00;101174.78;2083360;28;20056;-87
2023/01/30 05:26:51;;;;;;;6.05;2.83;;;;;;;9.32;100.00;101181.00;2089970;28;20089;-88
2023/01/30 05:28:12;;;;;;;7.57;3.60;;;;;;;9.33;100.00;101178.38;2087050;28;20855;-88
2023/01/30 05:29:34;;;;;;;8.50;4.25;;;;;;;9.34;100.00;101185.44;2087059;28;20090;-87
2023/01/30 05:31:01;;;;;;;10.07;3.83;;;;;;;9.36;100.00;101182.84;2081629;28;20049;-87
2023/01/30 05:32:24;;;;;;;7.20;3.28;;;;;;;9.37;100.00;101179.38;2081376;28;20107;-87
2023/01/30 05:33:48;;;;;;;5.45;3.35;;;;;;;9.39;100.00;101175.91;2085485;28;20051;-86
2023/01/30 05:35:10;;;;;;;6.30;3.10;;;;;;;9.40;100.00;101176.81;2087709;28;20056;-87
2023/01/30 05:36:33;;;;;;;7.45;3.78;;;;;;;9.41;100.00;101178.59;2087126;28;20059;-85
2023/01/30 05:37:56;;;;;;;7.65;3.28;;;;;;;9.43;100.00;101180.44;2087220;28;20049;-85
2023/01/30 05:39:19;;;;;;;6.78;3.28;;;;;;;9.44;100.00;101173.41;2087415;28;20444;-83
2023/01/30 05:40:41;;;;;;;9.40;3.75;;;;;;;9.46;100.00;101169.06;2086435;28;20052;-83
2023/01/30 05:42:04;;;;;;;9.68;3.70;;;;;;;9.45;100.00;101169.94;2087341;28;20498;-83
2023/01/30 05:43:25;;;;;;;6.93;3.20;;;;;;;9.46;100.00;101182.25;2088002;28;20037;-83
2023/01/30 05:44:47;;;;;;;8.15;3.75;;;;;;;9.47;100.00;101181.38;2085557;28;20056;-82
2023/01/30 05:46:11;;;;;;;10.32;5.00;;;;;;;9.47;100.00;101179.66;2078838;28;20044;-88
2023/01/30 05:47:34;;;;;;;8.07;3.50;;;;;;;9.46;100.00;101188.41;2079019;28;20045;-88
2023/01/30 05:48:56;;;;;;;8.82;3.47;;;;;;;9.46;100.00;101176.97;2078870;28;20096;-87
2023/01/30 05:50:18;;;;;;;6.07;3.17;;;;;;;9.46;100.00;101180.50;2078758;28;20054;-87
2023/01/30 05:51:41;;;;;;;8.25;3.47;;;;;;;9.48;100.00;101175.28;2078750;28;20045;-88
2023/01/30 05:53:04;;;;;;;19.17;10.20;;;;;;;9.50;100.00;101177.13;2082163;28;20147;-85
2023/01/30 05:54:26;;;;;;;17.75;9.88;;;;;;;9.52;100.00;101183.28;2085586;28;20540;-87
2023/01/30 05:55:55;;;;;;;12.25;7.38;;;;;;;9.55;100.00;101193.03;2086912;28;20048;-87
2023/01/30 05:57:16;;;;;;;9.88;5.05;;;;;;;9.57;100.00;101188.72;2085160;28;20037;-86
2023/01/30 05:58:39;;;;;;;8.85;4.38;;;;;;;9.60;100.00;101188.78;2078999;28;20485;-87
2023/01/30 06:00:01;;;;;;;9.48;5.53;;;;;;;9.64;100.00;101187.13;2082214;28;20127;-87
2023/01/30 06:01:24;;;;;;;11.10;6.68;;;;;;;9.68;100.00;101194.25;2086877;28;20052;-86
2023/01/30 06:02:46;;;;;;;10.80;6.25;;;;;;;9.73;100.00;101189.97;2087265;28;20052;-86
2023/01/30 06:04:08;;;;;;;8.68;4.40;;;;;;;9.78;100.00;101194.50;2084193;28;20056;-85
2023/01/30 06:05:31;;;;;;;9.50;4.53;;;;;;;9.80;100.00;101189.28;2086961;28;20497;-87
2023/01/30 06:06:52;;;;;;;9.27;4.43;;;;;;;9.84;100.00;101186.78;2078429;28;20430;-87
2023/01/30 06:08:16;;;;;;;7.90;4.28;;;;;;;9.91;100.00;101198.38;2081561;28;20075;-86
2023/01/30 06:09:38;;;;;;;8.32;3.92;;;;;;;9.95;100.00;101189.69;2086836;28;20576;-85
2023/01/30 06:11:01;;;;;;;10.43;4.43;;;;;;;10.00;100.00;101195.94;2087063;28;20621;-85
2023/01/30 06:12:24;;;;;;;9.52;4.60;;;;;;;10.03;100.00;101195.16;2086516;28;20101;-84
2023/01/30 06:13:46;;;;;;;7.22;4.20;;;;;;;10.06;100.00;101195.22;2080968;28;20041;-84
2023/01/30 06:15:10;;;;;;;8.25;4.30;;;;;;;10.08;100.00;101193.50;2091196;28;20408;-84
2023/01/30 06:16:32;;;;;;;12.05;4.55;;;;;;;10.08;100.00;101197.03;2088654;28;20041;-83
2023/01/30 06:17:55;;;;;;;9.00;4.13;;;;;;;10.09;100.00;101193.56;2093878;28;20053;-83
2023/01/30 06:19:17;;;;;;;11.18;5.15;;;;;;;10.11;100.00;101201.50;2083853;28;20782;-83
2023/01/30 06:20:39;;;;;;;10.10;5.10;;;;;;;10.12;100.00;101198.88;2084616;28;20041;-83
2023/01/30 06:22:03;;;;;;;11.23;6.00;;;;;;;10.15;100.00;101201.63;2086738;28;20421;-84
2023/01/30 06:23:26;;;;;;;9.70;5.40;;;;;;;10.18;100.00;101209.63;2086939;28;20084;-83
2023/01/30 06:24:49;;;;;;;10.50;5.93;;;;;;;10.24;100.00;101211.53;2090751;28;20060;-83
2023/01/30 06:26:10;;;;;;;12.07;6.38;;;;;;;10.29;100.00;101200.22;2089393;28;20076;-83
2023/01/30 06:27:32;;;;;;;10.63;5.90;;;;;;;10.35;100.00;101203.00;2084700;28;20389;-83
2023/01/30 06:28:55;;;;;;;12.95;8.52;;;;;;;10.37;100.00;101201.28;2078980;28;20068;-83
2023/01/30 06:30:17;;;;;;;13.05;8.02;;;;;;;10.44;100.00;101201.41;2081018;28;20037;-83
2023/01/30 06:31:39;;;;;;;10.68;5.88;;;;;;;10.48;100.00;101204.19;2085952;28;20048;-83
2023/01/30 06:33:02;;;;;;;11.85;5.70;;;;;;;10.53;100.00;101202.53;2085552;28;20409;-83
2023/01/30 06:34:24;;;;;;;9.25;4.85;;;;;;;10.58;100.00;101200.00;2080121;28;20048;-83
2023/01/30 06:35:49;;;;;;;11.20;5.93;;;;;;;10.67;100.00;101206.38;2085166;28;20406;-83
2023/01/30 06:37:12;;;;;;;13.65;7.07;;;;;;;10.76;100.00;101206.56;2083224;28;20049;-83
2023/01/30 06:38:35;;;;;;;12.25;6.55;;;;;;;10.85;100.00;101205.00;2086853;28;20045;-83